sensor_id;sensor_type;location;lat;lon;timestamp;P1;durP1;ratioP1;P2;durP2;ratioP2
79126;SDS011;68528;48.814;8.904;2023-04-24T00:01:30;2.20;;;0.50;;
79126;SDS011;68528;48.814;8.904;2023-04-24T00:03:56;2.20;;;0.60;;
79126;SDS011;68528;48.814;8.904;2023-04-24T00:06:25;1.35;;;0.40;;
79126;SDS011;68528;48.814;8.904;2023-04-24T00:08:58;1.55;;;0.40;;
79126;SDS011;68528;48.814;8.904;2023-04-24T00:11:24;1.10;;;0.43;;
79126;SDS011;68528;48.814;8.904;2023-04-24T00:13:49;1.55;;;0.50;;
79126;SDS011;68528;48.814;8.904;2023-04-24T00:16:40;1.55;;;0.40;;
79126;SDS011;68528;48.814;8.904;2023-04-24T00:19:22;1.38;;;0.50;;
79126;SDS011;68528;48.814;8.904;2023-04-24T00:21:48;4.13;;;0.43;;
79126;SDS011;68528;48.814;8.904;2023-04-24T00:24:17;2.08;;;0.43;;
79126;SDS011;68528;48.814;8.904;2023-04-24T00:26:43;1.75;;;0.60;;
79126;SDS011;68528;48.814;8.904;2023-04-24T00:29:10;1.27;;;0.57;;
79126;SDS011;68528;48.814;8.904;2023-04-24T00:31:35;1.80;;;0.50;;
79126;SDS011;68528;48.814;8.904;2023-04-24T00:34:01;1.85;;;0.50;;
79126;SDS011;68528;48.814;8.904;2023-04-24T00:36:29;0.40;;;0.35;;
79126;SDS011;68528;48.814;8.904;2023-04-24T00:38:55;1.45;;;0.40;;
79126;SDS011;68528;48.814;8.904;2023-04-24T00:41:21;2.95;;;0.68;;
79126;SDS011;68528;48.814;8.904;2023-04-24T00:43:47;0.50;;;0.40;;
79126;SDS011;68528;48.814;8.904;2023-04-24T00:46:21;0.82;;;0.35;;
79126;SDS011;68528;48.814;8.904;2023-04-24T00:48:47;1.50;;;0.30;;
79126;SDS011;68528;48.814;8.904;2023-04-24T00:51:12;1.95;;;0.40;;
79126;SDS011;68528;48.814;8.904;2023-04-24T00:53:38;0.70;;;0.28;;
79126;SDS011;68528;48.814;8.904;2023-04-24T00:56:04;2.55;;;0.60;;
79126;SDS011;68528;48.814;8.904;2023-04-24T00:58:31;1.30;;;0.57;;
79126;SDS011;68528;48.814;8.904;2023-04-24T01:00:57;0.45;;;0.40;;
79126;SDS011;68528;48.814;8.904;2023-04-24T01:03:24;1.65;;;0.35;;
79126;SDS011;68528;48.814;8.904;2023-04-24T01:05:53;1.05;;;0.30;;
79126;SDS011;68528;48.814;8.904;2023-04-24T01:08:20;1.90;;;0.60;;
79126;SDS011;68528;48.814;8.904;2023-04-24T01:10:53;0.45;;;0.30;;
79126;SDS011;68528;48.814;8.904;2023-04-24T01:13:19;0.70;;;0.45;;
79126;SDS011;68528;48.814;8.904;2023-04-24T01:15:45;1.08;;;0.63;;
79126;SDS011;68528;48.814;8.904;2023-04-24T01:18:12;0.50;;;0.30;;
79126;SDS011;68528;48.814;8.904;2023-04-24T01:20:39;0.55;;;0.30;;
79126;SDS011;68528;48.814;8.904;2023-04-24T01:23:07;1.00;;;0.50;;
79126;SDS011;68528;48.814;8.904;2023-04-24T01:25:34;1.20;;;0.30;;
79126;SDS011;68528;48.814;8.904;2023-04-24T01:27:59;1.08;;;0.55;;
79126;SDS011;68528;48.814;8.904;2023-04-24T01:30:26;1.33;;;0.70;;
79126;SDS011;68528;48.814;8.904;2023-04-24T01:32:53;0.75;;;0.40;;
79126;SDS011;68528;48.814;8.904;2023-04-24T01:35:19;1.65;;;0.45;;
79126;SDS011;68528;48.814;8.904;2023-04-24T01:37:45;1.52;;;0.43;;
79126;SDS011;68528;48.814;8.904;2023-04-24T01:40:12;1.25;;;0.43;;
79126;SDS011;68528;48.814;8.904;2023-04-24T01:42:40;1.40;;;0.73;;
79126;SDS011;68528;48.814;8.904;2023-04-24T01:45:06;1.70;;;0.47;;
79126;SDS011;68528;48.814;8.904;2023-04-24T01:47:35;0.95;;;0.40;;
79126;SDS011;68528;48.814;8.904;2023-04-24T01:50:03;1.40;;;0.40;;
79126;SDS011;68528;48.814;8.904;2023-04-24T01:52:29;0.63;;;0.45;;
79126;SDS011;68528;48.814;8.904;2023-04-24T01:54:59;0.77;;;0.40;;
79126;SDS011;68528;48.814;8.904;2023-04-24T01:57:25;2.35;;;0.50;;
79126;SDS011;68528;48.814;8.904;2023-04-24T01:59:51;0.80;;;0.57;;
79126;SDS011;68528;48.814;8.904;2023-04-24T02:02:17;0.65;;;0.47;;
79126;SDS011;68528;48.814;8.904;2023-04-24T02:04:46;1.08;;;0.40;;
79126;SDS011;68528;48.814;8.904;2023-04-24T02:07:12;4.30;;;0.80;;
79126;SDS011;68528;48.814;8.904;2023-04-24T02:09:37;0.88;;;0.60;;
79126;SDS011;68528;48.814;8.904;2023-04-24T02:12:04;1.27;;;0.55;;
79126;SDS011;68528;48.814;8.904;2023-04-24T02:14:31;1.50;;;0.63;;
79126;SDS011;68528;48.814;8.904;2023-04-24T02:16:57;1.95;;;0.43;;
79126;SDS011;68528;48.814;8.904;2023-04-24T02:19:23;1.27;;;0.60;;
79126;SDS011;68528;48.814;8.904;2023-04-24T02:21:50;2.85;;;0.63;;
79126;SDS011;68528;48.814;8.904;2023-04-24T02:24:18;2.25;;;0.60;;
79126;SDS011;68528;48.814;8.904;2023-04-24T02:26:44;1.42;;;0.80;;
79126;SDS011;68528;48.814;8.904;2023-04-24T02:29:09;0.80;;;0.60;;
79126;SDS011;68528;48.814;8.904;2023-04-24T02:31:35;1.38;;;0.55;;
79126;SDS011;68528;48.814;8.904;2023-04-24T02:34:01;1.98;;;0.60;;
79126;SDS011;68528;48.814;8.904;2023-04-24T02:36:26;1.40;;;0.50;;
79126;SDS011;68528;48.814;8.904;2023-04-24T02:38:53;1.13;;;0.60;;
79126;SDS011;68528;48.814;8.904;2023-04-24T02:41:21;1.33;;;0.45;;
79126;SDS011;68528;48.814;8.904;2023-04-24T02:43:49;1.17;;;0.65;;
79126;SDS011;68528;48.814;8.904;2023-04-24T02:46:15;1.42;;;0.47;;
79126;SDS011;68528;48.814;8.904;2023-04-24T02:48:42;1.35;;;0.82;;
79126;SDS011;68528;48.814;8.904;2023-04-24T02:51:08;1.60;;;0.43;;
79126;SDS011;68528;48.814;8.904;2023-04-24T02:53:33;0.80;;;0.38;;
79126;SDS011;68528;48.814;8.904;2023-04-24T02:55:58;0.77;;;0.65;;
79126;SDS011;68528;48.814;8.904;2023-04-24T02:58:24;0.60;;;0.50;;
79126;SDS011;68528;48.814;8.904;2023-04-24T03:00:52;1.40;;;0.68;;
79126;SDS011;68528;48.814;8.904;2023-04-24T03:03:19;1.70;;;1.15;;
79126;SDS011;68528;48.814;8.904;2023-04-24T03:05:45;2.22;;;0.35;;
79126;SDS011;68528;48.814;8.904;2023-04-24T03:08:10;0.82;;;0.65;;
79126;SDS011;68528;48.814;8.904;2023-04-24T03:10:36;0.50;;;0.47;;
79126;SDS011;68528;48.814;8.904;2023-04-24T03:13:03;2.53;;;0.70;;
79126;SDS011;68528;48.814;8.904;2023-04-24T03:15:28;1.30;;;0.80;;
79126;SDS011;68528;48.814;8.904;2023-04-24T03:17:54;3.08;;;1.15;;
79126;SDS011;68528;48.814;8.904;2023-04-24T03:20:20;2.38;;;0.60;;
79126;SDS011;68528;48.814;8.904;2023-04-24T03:22:46;3.53;;;0.60;;
79126;SDS011;68528;48.814;8.904;2023-04-24T03:25:12;2.00;;;0.40;;
79126;SDS011;68528;48.814;8.904;2023-04-24T03:27:37;1.02;;;0.73;;
79126;SDS011;68528;48.814;8.904;2023-04-24T03:30:04;1.38;;;0.68;;
79126;SDS011;68528;48.814;8.904;2023-04-24T03:32:32;1.35;;;0.85;;
79126;SDS011;68528;48.814;8.904;2023-04-24T03:34:58;2.83;;;0.82;;
79126;SDS011;68528;48.814;8.904;2023-04-24T03:37:23;3.20;;;0.73;;
79126;SDS011;68528;48.814;8.904;2023-04-24T03:39:49;0.68;;;0.50;;
79126;SDS011;68528;48.814;8.904;2023-04-24T03:42:15;2.88;;;0.80;;
79126;SDS011;68528;48.814;8.904;2023-04-24T03:44:40;2.10;;;0.73;;
79126;SDS011;68528;48.814;8.904;2023-04-24T03:47:06;1.70;;;0.60;;
79126;SDS011;68528;48.814;8.904;2023-04-24T03:49:31;1.70;;;0.40;;
79126;SDS011;68528;48.814;8.904;2023-04-24T03:51:56;0.63;;;0.50;;
79126;SDS011;68528;48.814;8.904;2023-04-24T03:54:22;0.47;;;0.47;;
79126;SDS011;68528;48.814;8.904;2023-04-24T03:56:47;1.65;;;0.90;;
79126;SDS011;68528;48.814;8.904;2023-04-24T03:59:13;1.35;;;0.80;;
79126;SDS011;68528;48.814;8.904;2023-04-24T04:01:38;1.95;;;0.68;;
79126;SDS011;68528;48.814;8.904;2023-04-24T04:04:05;2.13;;;0.70;;
79126;SDS011;68528;48.814;8.904;2023-04-24T04:06:33;1.67;;;0.50;;
79126;SDS011;68528;48.814;8.904;2023-04-24T04:08:59;1.50;;;0.82;;
79126;SDS011;68528;48.814;8.904;2023-04-24T04:11:24;1.13;;;0.70;;
79126;SDS011;68528;48.814;8.904;2023-04-24T04:13:50;1.02;;;0.70;;
79126;SDS011;68528;48.814;8.904;2023-04-24T04:16:16;1.52;;;0.60;;
79126;SDS011;68528;48.814;8.904;2023-04-24T04:18:46;0.80;;;0.60;;
79126;SDS011;68528;48.814;8.904;2023-04-24T04:21:11;0.73;;;0.60;;
79126;SDS011;68528;48.814;8.904;2023-04-24T04:23:49;0.60;;;0.50;;
79126;SDS011;68528;48.814;8.904;2023-04-24T04:26:17;0.90;;;0.55;;
79126;SDS011;68528;48.814;8.904;2023-04-24T04:29:02;1.20;;;0.88;;
79126;SDS011;68528;48.814;8.904;2023-04-24T04:31:28;0.70;;;0.50;;
79126;SDS011;68528;48.814;8.904;2023-04-24T04:33:54;0.80;;;0.60;;
79126;SDS011;68528;48.814;8.904;2023-04-24T04:36:19;1.95;;;1.33;;
79126;SDS011;68528;48.814;8.904;2023-04-24T04:38:52;0.88;;;0.70;;
79126;SDS011;68528;48.814;8.904;2023-04-24T04:41:20;2.90;;;0.77;;
79126;SDS011;68528;48.814;8.904;2023-04-24T04:43:46;1.45;;;0.80;;
79126;SDS011;68528;48.814;8.904;2023-04-24T04:46:12;1.13;;;0.73;;
79126;SDS011;68528;48.814;8.904;2023-04-24T04:48:37;1.13;;;0.85;;
79126;SDS011;68528;48.814;8.904;2023-04-24T04:51:03;1.20;;;0.60;;
79126;SDS011;68528;48.814;8.904;2023-04-24T04:53:48;0.70;;;0.50;;
79126;SDS011;68528;48.814;8.904;2023-04-24T04:56:14;1.05;;;0.47;;
79126;SDS011;68528;48.814;8.904;2023-04-24T04:58:40;1.90;;;0.60;;
79126;SDS011;68528;48.814;8.904;2023-04-24T05:01:05;0.93;;;0.60;;
79126;SDS011;68528;48.814;8.904;2023-04-24T05:03:34;0.68;;;0.57;;
79126;SDS011;68528;48.814;8.904;2023-04-24T05:06:00;1.60;;;0.50;;
79126;SDS011;68528;48.814;8.904;2023-04-24T05:08:31;1.38;;;1.08;;
79126;SDS011;68528;48.814;8.904;2023-04-24T05:10:56;1.38;;;0.70;;
79126;SDS011;68528;48.814;8.904;2023-04-24T05:13:22;0.82;;;0.68;;
79126;SDS011;68528;48.814;8.904;2023-04-24T05:15:47;1.48;;;0.75;;
79126;SDS011;68528;48.814;8.904;2023-04-24T05:18:13;0.98;;;0.80;;
79126;SDS011;68528;48.814;8.904;2023-04-24T05:20:38;3.33;;;1.05;;
79126;SDS011;68528;48.814;8.904;2023-04-24T05:23:04;1.77;;;0.80;;
79126;SDS011;68528;48.814;8.904;2023-04-24T05:25:31;1.85;;;0.90;;
79126;SDS011;68528;48.814;8.904;2023-04-24T05:28:00;1.60;;;1.10;;
79126;SDS011;68528;48.814;8.904;2023-04-24T05:30:25;2.80;;;1.55;;
79126;SDS011;68528;48.814;8.904;2023-04-24T05:32:51;2.70;;;2.00;;
79126;SDS011;68528;48.814;8.904;2023-04-24T05:35:17;4.70;;;1.33;;
79126;SDS011;68528;48.814;8.904;2023-04-24T05:37:43;3.72;;;1.30;;
79126;SDS011;68528;48.814;8.904;2023-04-24T05:40:09;2.53;;;0.93;;
79126;SDS011;68528;48.814;8.904;2023-04-24T05:42:36;1.70;;;1.02;;
79126;SDS011;68528;48.814;8.904;2023-04-24T05:45:02;1.92;;;1.20;;
79126;SDS011;68528;48.814;8.904;2023-04-24T05:47:28;2.55;;;1.50;;
79126;SDS011;68528;48.814;8.904;2023-04-24T05:49:53;2.03;;;1.23;;
79126;SDS011;68528;48.814;8.904;2023-04-24T05:52:19;3.63;;;1.45;;
79126;SDS011;68528;48.814;8.904;2023-04-24T05:54:44;4.30;;;2.45;;
79126;SDS011;68528;48.814;8.904;2023-04-24T05:57:10;3.95;;;2.10;;
79126;SDS011;68528;48.814;8.904;2023-04-24T05:59:36;1.23;;;1.10;;
79126;SDS011;68528;48.814;8.904;2023-04-24T06:02:04;2.78;;;1.35;;
79126;SDS011;68528;48.814;8.904;2023-04-24T06:04:29;3.97;;;1.85;;
79126;SDS011;68528;48.814;8.904;2023-04-24T06:06:55;2.40;;;1.73;;
79126;SDS011;68528;48.814;8.904;2023-04-24T06:09:21;7.28;;;2.03;;
79126;SDS011;68528;48.814;8.904;2023-04-24T06:11:47;1.75;;;1.17;;
79126;SDS011;68528;48.814;8.904;2023-04-24T06:16:42;1.58;;;1.10;;
79126;SDS011;68528;48.814;8.904;2023-04-24T06:19:09;2.60;;;1.38;;
79126;SDS011;68528;48.814;8.904;2023-04-24T06:21:35;1.95;;;1.20;;
79126;SDS011;68528;48.814;8.904;2023-04-24T06:24:03;1.85;;;1.00;;
79126;SDS011;68528;48.814;8.904;2023-04-24T06:26:29;2.30;;;1.25;;
79126;SDS011;68528;48.814;8.904;2023-04-24T06:28:55;1.52;;;1.35;;
79126;SDS011;68528;48.814;8.904;2023-04-24T06:31:20;1.75;;;1.10;;
79126;SDS011;68528;48.814;8.904;2023-04-24T06:33:46;2.83;;;1.35;;
79126;SDS011;68528;48.814;8.904;2023-04-24T06:41:26;1.55;;;1.02;;
79126;SDS011;68528;48.814;8.904;2023-04-24T06:44:54;3.83;;;1.10;;
79126;SDS011;68528;48.814;8.904;2023-04-24T06:47:38;2.22;;;1.10;;
79126;SDS011;68528;48.814;8.904;2023-04-24T06:50:06;1.42;;;1.00;;
79126;SDS011;68528;48.814;8.904;2023-04-24T06:52:32;1.90;;;1.13;;
79126;SDS011;68528;48.814;8.904;2023-04-24T06:55:03;3.47;;;1.20;;
79126;SDS011;68528;48.814;8.904;2023-04-24T06:57:50;2.50;;;1.00;;
79126;SDS011;68528;48.814;8.904;2023-04-24T07:00:16;1.45;;;0.90;;
79126;SDS011;68528;48.814;8.904;2023-04-24T07:02:58;1.60;;;1.27;;
79126;SDS011;68528;48.814;8.904;2023-04-24T07:05:23;1.83;;;1.25;;
79126;SDS011;68528;48.814;8.904;2023-04-24T07:07:52;2.28;;;1.20;;
79126;SDS011;68528;48.814;8.904;2023-04-24T07:10:18;2.85;;;1.55;;
79126;SDS011;68528;48.814;8.904;2023-04-24T07:12:43;3.75;;;1.38;;
79126;SDS011;68528;48.814;8.904;2023-04-24T07:15:17;2.03;;;1.08;;
79126;SDS011;68528;48.814;8.904;2023-04-24T07:18:43;1.95;;;1.00;;
79126;SDS011;68528;48.814;8.904;2023-04-24T07:21:46;3.00;;;1.13;;
79126;SDS011;68528;48.814;8.904;2023-04-24T07:24:14;2.78;;;1.05;;
79126;SDS011;68528;48.814;8.904;2023-04-24T07:26:42;1.00;;;0.90;;
79126;SDS011;68528;48.814;8.904;2023-04-24T07:29:08;2.53;;;0.82;;
79126;SDS011;68528;48.814;8.904;2023-04-24T07:31:33;1.48;;;0.82;;
79126;SDS011;68528;48.814;8.904;2023-04-24T07:34:00;1.60;;;0.98;;
79126;SDS011;68528;48.814;8.904;2023-04-24T07:36:34;1.73;;;1.10;;
79126;SDS011;68528;48.814;8.904;2023-04-24T07:40:03;1.58;;;1.35;;
79126;SDS011;68528;48.814;8.904;2023-04-24T07:42:35;2.42;;;0.88;;
79126;SDS011;68528;48.814;8.904;2023-04-24T07:51:35;1.20;;;1.05;;
79126;SDS011;68528;48.814;8.904;2023-04-24T07:54:10;2.45;;;0.93;;
79126;SDS011;68528;48.814;8.904;2023-04-24T07:56:42;2.20;;;0.90;;
79126;SDS011;68528;48.814;8.904;2023-04-24T07:59:08;1.02;;;0.80;;
79126;SDS011;68528;48.814;8.904;2023-04-24T08:01:35;1.80;;;0.95;;
79126;SDS011;68528;48.814;8.904;2023-04-24T08:04:00;3.33;;;1.05;;
79126;SDS011;68528;48.814;8.904;2023-04-24T08:06:26;1.55;;;0.80;;
79126;SDS011;68528;48.814;8.904;2023-04-24T08:08:55;1.13;;;0.90;;
79126;SDS011;68528;48.814;8.904;2023-04-24T08:11:21;1.50;;;0.98;;
79126;SDS011;68528;48.814;8.904;2023-04-24T08:17:10;2.90;;;1.00;;
79126;SDS011;68528;48.814;8.904;2023-04-24T08:29:16;0.80;;;0.80;;
79126;SDS011;68528;48.814;8.904;2023-04-24T08:31:46;2.20;;;0.90;;
79126;SDS011;68528;48.814;8.904;2023-04-24T08:34:22;2.88;;;0.80;;
79126;SDS011;68528;48.814;8.904;2023-04-24T08:36:48;1.50;;;0.68;;
79126;SDS011;68528;48.814;8.904;2023-04-24T08:39:14;2.55;;;0.95;;
79126;SDS011;68528;48.814;8.904;2023-04-24T08:41:43;5.70;;;1.20;;
79126;SDS011;68528;48.814;8.904;2023-04-24T08:44:10;1.50;;;0.82;;
79126;SDS011;68528;48.814;8.904;2023-04-24T08:46:39;1.40;;;0.80;;
79126;SDS011;68528;48.814;8.904;2023-04-24T08:49:29;1.50;;;0.95;;
79126;SDS011;68528;48.814;8.904;2023-04-24T08:51:57;2.03;;;1.00;;
79126;SDS011;68528;48.814;8.904;2023-04-24T08:54:45;3.05;;;1.00;;
79126;SDS011;68528;48.814;8.904;2023-04-24T08:57:14;1.27;;;0.90;;
79126;SDS011;68528;48.814;8.904;2023-04-24T08:59:43;1.25;;;0.82;;
79126;SDS011;68528;48.814;8.904;2023-04-24T09:02:10;0.90;;;0.60;;
79126;SDS011;68528;48.814;8.904;2023-04-24T09:04:37;1.00;;;0.70;;
79126;SDS011;68528;48.814;8.904;2023-04-24T09:07:03;1.77;;;0.80;;
79126;SDS011;68528;48.814;8.904;2023-04-24T09:09:31;3.58;;;0.95;;
79126;SDS011;68528;48.814;8.904;2023-04-24T09:11:58;6.15;;;1.20;;
79126;SDS011;68528;48.814;8.904;2023-04-24T09:14:24;3.65;;;0.80;;
79126;SDS011;68528;48.814;8.904;2023-04-24T09:16:51;5.00;;;1.17;;
79126;SDS011;68528;48.814;8.904;2023-04-24T09:19:16;1.75;;;0.90;;
79126;SDS011;68528;48.814;8.904;2023-04-24T09:21:50;2.75;;;0.90;;
79126;SDS011;68528;48.814;8.904;2023-04-24T09:28:25;1.50;;;0.82;;
79126;SDS011;68528;48.814;8.904;2023-04-24T09:33:57;1.33;;;0.52;;
79126;SDS011;68528;48.814;8.904;2023-04-24T09:36:34;1.33;;;0.70;;
79126;SDS011;68528;48.814;8.904;2023-04-24T09:39:07;1.02;;;0.85;;
79126;SDS011;68528;48.814;8.904;2023-04-24T09:41:35;2.15;;;0.80;;
79126;SDS011;68528;48.814;8.904;2023-04-24T09:44:11;5.28;;;0.88;;
79126;SDS011;68528;48.814;8.904;2023-04-24T09:47:16;5.15;;;1.02;;
79126;SDS011;68528;48.814;8.904;2023-04-24T09:49:47;6.47;;;1.02;;
79126;SDS011;68528;48.814;8.904;2023-04-24T09:53:10;2.50;;;0.90;;
79126;SDS011;68528;48.814;8.904;2023-04-24T09:56:08;0.73;;;0.40;;
79126;SDS011;68528;48.814;8.904;2023-04-24T10:03:08;1.77;;;0.70;;
79126;SDS011;68528;48.814;8.904;2023-04-24T10:06:14;1.05;;;0.70;;
79126;SDS011;68528;48.814;8.904;2023-04-24T10:08:40;1.23;;;0.82;;
79126;SDS011;68528;48.814;8.904;2023-04-24T10:11:06;1.23;;;0.60;;
79126;SDS011;68528;48.814;8.904;2023-04-24T10:13:33;1.23;;;0.60;;
79126;SDS011;68528;48.814;8.904;2023-04-24T10:16:00;2.25;;;0.80;;
79126;SDS011;68528;48.814;8.904;2023-04-24T10:18:25;1.05;;;0.80;;
79126;SDS011;68528;48.814;8.904;2023-04-24T10:20:52;1.90;;;0.93;;
79126;SDS011;68528;48.814;8.904;2023-04-24T10:23:19;2.83;;;1.13;;
79126;SDS011;68528;48.814;8.904;2023-04-24T10:25:46;2.17;;;0.70;;
79126;SDS011;68528;48.814;8.904;2023-04-24T10:28:14;0.90;;;0.80;;
79126;SDS011;68528;48.814;8.904;2023-04-24T10:30:40;1.55;;;0.85;;
79126;SDS011;68528;48.814;8.904;2023-04-24T10:33:08;3.20;;;0.70;;
79126;SDS011;68528;48.814;8.904;2023-04-24T10:35:36;2.25;;;0.95;;
79126;SDS011;68528;48.814;8.904;2023-04-24T10:41:08;1.15;;;0.68;;
79126;SDS011;68528;48.814;8.904;2023-04-24T10:43:39;1.40;;;0.70;;
79126;SDS011;68528;48.814;8.904;2023-04-24T10:46:05;1.13;;;0.70;;
79126;SDS011;68528;48.814;8.904;2023-04-24T10:48:35;3.22;;;0.70;;
79126;SDS011;68528;48.814;8.904;2023-04-24T10:51:11;2.67;;;1.25;;
79126;SDS011;68528;48.814;8.904;2023-04-24T10:53:37;1.83;;;1.00;;
79126;SDS011;68528;48.814;8.904;2023-04-24T10:56:07;1.00;;;0.60;;
79126;SDS011;68528;48.814;8.904;2023-04-24T10:58:52;1.17;;;0.88;;
79126;SDS011;68528;48.814;8.904;2023-04-24T11:01:25;5.75;;;1.10;;
79126;SDS011;68528;48.814;8.904;2023-04-24T11:04:01;1.42;;;1.00;;
79126;SDS011;68528;48.814;8.904;2023-04-24T11:06:36;2.53;;;1.15;;
79126;SDS011;68528;48.814;8.904;2023-04-24T11:09:04;1.08;;;0.70;;
79126;SDS011;68528;48.814;8.904;2023-04-24T11:18:01;1.00;;;0.88;;
79126;SDS011;68528;48.814;8.904;2023-04-24T11:20:26;1.92;;;1.02;;
79126;SDS011;68528;48.814;8.904;2023-04-24T11:22:53;1.67;;;0.98;;
79126;SDS011;68528;48.814;8.904;2023-04-24T11:25:23;1.80;;;0.82;;
79126;SDS011;68528;48.814;8.904;2023-04-24T11:27:50;3.80;;;0.90;;
79126;SDS011;68528;48.814;8.904;2023-04-24T11:30:19;3.53;;;0.73;;
79126;SDS011;68528;48.814;8.904;2023-04-24T11:32:50;2.35;;;0.90;;
79126;SDS011;68528;48.814;8.904;2023-04-24T11:36:02;2.10;;;1.10;;
79126;SDS011;68528;48.814;8.904;2023-04-24T11:38:27;1.85;;;1.35;;
79126;SDS011;68528;48.814;8.904;2023-04-24T11:40:53;1.05;;;0.88;;
79126;SDS011;68528;48.814;8.904;2023-04-24T11:43:22;1.17;;;0.98;;
79126;SDS011;68528;48.814;8.904;2023-04-24T11:45:49;2.95;;;0.95;;
79126;SDS011;68528;48.814;8.904;2023-04-24T11:48:20;2.20;;;1.00;;
79126;SDS011;68528;48.814;8.904;2023-04-24T11:51:02;1.58;;;1.10;;
79126;SDS011;68528;48.814;8.904;2023-04-24T11:53:30;0.88;;;0.68;;
79126;SDS011;68528;48.814;8.904;2023-04-24T11:55:55;2.95;;;1.00;;
79126;SDS011;68528;48.814;8.904;2023-04-24T11:58:22;3.20;;;0.95;;
79126;SDS011;68528;48.814;8.904;2023-04-24T12:00:54;3.15;;;0.93;;
79126;SDS011;68528;48.814;8.904;2023-04-24T12:03:22;1.27;;;0.98;;
79126;SDS011;68528;48.814;8.904;2023-04-24T12:05:47;5.05;;;1.30;;
79126;SDS011;68528;48.814;8.904;2023-04-24T12:08:26;1.38;;;0.90;;
79126;SDS011;68528;48.814;8.904;2023-04-24T12:11:11;1.95;;;0.98;;
79126;SDS011;68528;48.814;8.904;2023-04-24T12:13:56;1.73;;;1.20;;
79126;SDS011;68528;48.814;8.904;2023-04-24T12:17:10;0.90;;;0.60;;
79126;SDS011;68528;48.814;8.904;2023-04-24T12:19:56;3.83;;;1.13;;
79126;SDS011;68528;48.814;8.904;2023-04-24T12:22:26;2.38;;;0.90;;
79126;SDS011;68528;48.814;8.904;2023-04-24T12:25:03;1.48;;;0.80;;
79126;SDS011;68528;48.814;8.904;2023-04-24T12:27:31;2.33;;;0.95;;
79126;SDS011;68528;48.814;8.904;2023-04-24T12:30:01;2.35;;;1.08;;
79126;SDS011;68528;48.814;8.904;2023-04-24T12:32:53;1.58;;;0.82;;
79126;SDS011;68528;48.814;8.904;2023-04-24T12:35:20;1.13;;;0.70;;
79126;SDS011;68528;48.814;8.904;2023-04-24T12:37:48;1.15;;;0.82;;
79126;SDS011;68528;48.814;8.904;2023-04-24T12:40:14;0.73;;;0.70;;
79126;SDS011;68528;48.814;8.904;2023-04-24T12:42:47;1.13;;;0.70;;
79126;SDS011;68528;48.814;8.904;2023-04-24T12:45:14;2.63;;;1.23;;
79126;SDS011;68528;48.814;8.904;2023-04-24T12:47:56;0.77;;;0.57;;
79126;SDS011;68528;48.814;8.904;2023-04-24T12:50:24;1.00;;;0.90;;
79126;SDS011;68528;48.814;8.904;2023-04-24T12:52:51;3.15;;;1.20;;
79126;SDS011;68528;48.814;8.904;2023-04-24T12:55:17;2.00;;;1.00;;
79126;SDS011;68528;48.814;8.904;2023-04-24T12:57:43;1.85;;;1.30;;
79126;SDS011;68528;48.814;8.904;2023-04-24T13:00:08;1.95;;;1.38;;
79126;SDS011;68528;48.814;8.904;2023-04-24T13:02:34;2.00;;;1.05;;
79126;SDS011;68528;48.814;8.904;2023-04-24T13:05:00;3.50;;;1.30;;
79126;SDS011;68528;48.814;8.904;2023-04-24T13:07:27;2.50;;;1.52;;
79126;SDS011;68528;48.814;8.904;2023-04-24T13:09:53;1.42;;;1.00;;
79126;SDS011;68528;48.814;8.904;2023-04-24T13:12:19;2.75;;;0.95;;
79126;SDS011;68528;48.814;8.904;2023-04-24T13:15:06;1.83;;;1.10;;
79126;SDS011;68528;48.814;8.904;2023-04-24T13:17:32;6.18;;;1.30;;
79126;SDS011;68528;48.814;8.904;2023-04-24T13:19:58;3.53;;;1.17;;
79126;SDS011;68528;48.814;8.904;2023-04-24T13:22:23;1.30;;;1.00;;
79126;SDS011;68528;48.814;8.904;2023-04-24T13:24:54;2.65;;;1.10;;
79126;SDS011;68528;48.814;8.904;2023-04-24T13:27:22;2.35;;;1.10;;
79126;SDS011;68528;48.814;8.904;2023-04-24T13:29:48;1.77;;;0.73;;
79126;SDS011;68528;48.814;8.904;2023-04-24T13:32:13;2.03;;;1.00;;
79126;SDS011;68528;48.814;8.904;2023-04-24T13:34:39;1.17;;;0.73;;
79126;SDS011;68528;48.814;8.904;2023-04-24T13:37:04;1.35;;;0.93;;
79126;SDS011;68528;48.814;8.904;2023-04-24T13:39:30;4.15;;;1.75;;
79126;SDS011;68528;48.814;8.904;2023-04-24T13:41:56;1.92;;;1.10;;
79126;SDS011;68528;48.814;8.904;2023-04-24T13:44:24;4.47;;;1.25;;
79126;SDS011;68528;48.814;8.904;2023-04-24T13:46:50;1.35;;;0.90;;
79126;SDS011;68528;48.814;8.904;2023-04-24T13:49:18;1.60;;;1.25;;
79126;SDS011;68528;48.814;8.904;2023-04-24T13:51:44;1.88;;;1.02;;
79126;SDS011;68528;48.814;8.904;2023-04-24T13:54:10;1.98;;;1.17;;
79126;SDS011;68528;48.814;8.904;2023-04-24T13:56:36;2.30;;;1.15;;
79126;SDS011;68528;48.814;8.904;2023-04-24T13:59:02;2.17;;;1.20;;
79126;SDS011;68528;48.814;8.904;2023-04-24T14:01:29;1.45;;;0.88;;
79126;SDS011;68528;48.814;8.904;2023-04-24T14:04:23;1.85;;;1.30;;
79126;SDS011;68528;48.814;8.904;2023-04-24T14:06:50;4.97;;;1.10;;
79126;SDS011;68528;48.814;8.904;2023-04-24T14:09:16;1.83;;;1.15;;
79126;SDS011;68528;48.814;8.904;2023-04-24T14:11:41;4.00;;;1.17;;
79126;SDS011;68528;48.814;8.904;2023-04-24T14:14:07;2.65;;;1.40;;
79126;SDS011;68528;48.814;8.904;2023-04-24T14:16:32;2.45;;;1.50;;
79126;SDS011;68528;48.814;8.904;2023-04-24T14:18:58;1.90;;;1.42;;
79126;SDS011;68528;48.814;8.904;2023-04-24T14:21:24;1.55;;;1.33;;
79126;SDS011;68528;48.814;8.904;2023-04-24T14:23:50;3.95;;;1.70;;
79126;SDS011;68528;48.814;8.904;2023-04-24T14:26:16;2.00;;;1.10;;
79126;SDS011;68528;48.814;8.904;2023-04-24T14:28:41;1.55;;;1.15;;
79126;SDS011;68528;48.814;8.904;2023-04-24T14:31:06;1.98;;;1.23;;
79126;SDS011;68528;48.814;8.904;2023-04-24T14:33:33;2.60;;;1.23;;
79126;SDS011;68528;48.814;8.904;2023-04-24T14:35:58;2.70;;;1.50;;
79126;SDS011;68528;48.814;8.904;2023-04-24T14:38:24;5.03;;;1.50;;
79126;SDS011;68528;48.814;8.904;2023-04-24T14:40:52;2.25;;;1.60;;
79126;SDS011;68528;48.814;8.904;2023-04-24T14:43:17;2.47;;;1.73;;
79126;SDS011;68528;48.814;8.904;2023-04-24T14:45:43;2.10;;;1.48;;
79126;SDS011;68528;48.814;8.904;2023-04-24T14:48:08;2.75;;;1.20;;
79126;SDS011;68528;48.814;8.904;2023-04-24T14:50:34;2.28;;;1.45;;
79126;SDS011;68528;48.814;8.904;2023-04-24T14:53:00;8.05;;;1.60;;
79126;SDS011;68528;48.814;8.904;2023-04-24T14:55:27;2.60;;;1.38;;
79126;SDS011;68528;48.814;8.904;2023-04-24T14:57:58;2.83;;;1.42;;
79126;SDS011;68528;48.814;8.904;2023-04-24T15:00:24;2.75;;;1.40;;
79126;SDS011;68528;48.814;8.904;2023-04-24T15:02:49;2.58;;;1.63;;
79126;SDS011;68528;48.814;8.904;2023-04-24T15:05:14;1.55;;;1.15;;
79126;SDS011;68528;48.814;8.904;2023-04-24T15:07:40;2.22;;;1.33;;
79126;SDS011;68528;48.814;8.904;2023-04-24T15:10:06;1.75;;;1.40;;
79126;SDS011;68528;48.814;8.904;2023-04-24T15:12:32;2.25;;;1.20;;
79126;SDS011;68528;48.814;8.904;2023-04-24T15:14:58;1.45;;;1.08;;
79126;SDS011;68528;48.814;8.904;2023-04-24T15:17:24;3.13;;;1.10;;
79126;SDS011;68528;48.814;8.904;2023-04-24T15:19:50;3.92;;;1.70;;
79126;SDS011;68528;48.814;8.904;2023-04-24T15:22:15;2.47;;;1.27;;
79126;SDS011;68528;48.814;8.904;2023-04-24T15:24:41;2.00;;;1.13;;
79126;SDS011;68528;48.814;8.904;2023-04-24T15:27:08;1.10;;;1.00;;
79126;SDS011;68528;48.814;8.904;2023-04-24T15:29:35;2.67;;;1.02;;
79126;SDS011;68528;48.814;8.904;2023-04-24T15:32:00;3.35;;;1.45;;
79126;SDS011;68528;48.814;8.904;2023-04-24T15:34:27;2.70;;;1.50;;
79126;SDS011;68528;48.814;8.904;2023-04-24T15:36:53;1.52;;;0.95;;
79126;SDS011;68528;48.814;8.904;2023-04-24T15:39:21;2.10;;;1.60;;
79126;SDS011;68528;48.814;8.904;2023-04-24T15:41:49;3.67;;;1.52;;
79126;SDS011;68528;48.814;8.904;2023-04-24T15:44:16;2.42;;;1.52;;
79126;SDS011;68528;48.814;8.904;2023-04-24T15:46:42;1.90;;;1.30;;
79126;SDS011;68528;48.814;8.904;2023-04-24T15:49:07;1.05;;;0.80;;